• Join FlightAware (Why Join?)
  • Login
  • US Flag 
12:11PM EDT


 

Airport Tracker/Info


-or-


 

Live Flight TrackerFlight Track Log ✈ EJA583 ✈ 19-Jul-2013 ✈ CYQB - KBTV

Flight Track Log - Related Links

Times and Time Zones

All times are in EDT time to prevent confusion due to time zone crossing. See the EJA583 flight status page for this flight to view local times or setup timezone preferences in your user account.

Time Position Orientation Groundspeed Altitude Reporting Facility
EDT Latitude Longitude Course Direction KTS MPH feet Rate Location/Type
06:02PM 45.3009 -72.5431 209° Southwest  Level Estimated
06:03PM 45.2466 -72.5837 208° Southwest  Level Estimated
06:04PM 45.1922 -72.6242 208° Southwest  Level Estimated
06:05PM 45.1379 -72.6646 208° Southwest  Level Estimated
06:06PM 45.0836 -72.7050 208° Southwest  Level Estimated
06:07PM 45.0292 -72.7453 208° Southwest  Level Estimated
06:08PM 44.9748 -72.7855 208° Southwest  Level Estimated
06:09PM 44.9204 -72.8256 208° Southwest  Level Estimated
06:10PM 44.8660 -72.8656 208° Southwest  Level Estimated
06:11PM 44.8116 -72.9056 208° Southwest  Level Estimated
06:12PM 44.7572 -72.9455 208° Southwest  Level Estimated
06:13PM 44.7027 -72.9853 207° Southwest  Level Estimated
06:14PM 44.6483 -73.0251 207° Southwest  Level Estimated
06:15PM 44.5938 -73.0648 207° Southwest  Level Estimated
06:16PM 44.5393 -73.1044 207° Southwest  Level Estimated
06:17PM 44.4848 -73.1439 207° Southwest  Level Estimated
06:18PM 44.4719 -73.1533 207° Southwest  Level Estimated
06:19PM 44.4719 -73.1533 55° Northeast  Level Estimated
06:20PM 44.4719 -73.1533 55° Northeast  Level Estimated
06:21PM 44.4719 -73.1533 55° Northeast  Level Estimated
06:22PM 44.4719 -73.1533 55° Northeast  Level Estimated
06:23PM 44.4719 -73.1533 55° Northeast  Level Estimated
06:24PM 44.4719 -73.1533 55° Northeast  Level Estimated
06:25PM 44.4719 -73.1533 55° Northeast  Level Estimated
06:26PM 44.4719 -73.1533 55° Northeast  Level Estimated
06:27PM 44.4719 -73.1533 55° Northeast  Level Estimated
06:28PM 44.4719 -73.1533 55° Northeast  Level Estimated
06:29PM 44.4719 -73.1533 55° Northeast  Level Estimated
06:30PM 44.4719 -73.1533 55° Northeast  Level Estimated
06:31PM 44.4719 -73.1533 55° Northeast  Level Estimated
06:32PM 44.4719 -73.1533 55° Northeast  Level Estimated
06:33PM 44.4719 -73.1533 55° Northeast  Level Estimated
06:34PM 44.4719 -73.1533 55° Northeast  Level Estimated
06:35PM 44.4719 -73.1533 55° Northeast  Level Estimated
06:36PM 44.4719 -73.1533 55° Northeast  Level Estimated
06:37PM 44.4719 -73.1533 55° Northeast  Level Estimated
06:38PM 44.4719 -73.1533 55° Northeast  Level Estimated
06:39PM 44.4719 -73.1533 55° Northeast  Level Estimated
06:40PM 44.4719 -73.1533 55° Northeast  Level Estimated
06:41PM 44.4719 -73.1533 55° Northeast  Level Estimated
06:42PM 44.4719 -73.1533 55° Northeast  Level Estimated
06:43PM 44.4719 -73.1533 55° Northeast  Level Estimated
06:44PM 44.4719 -73.1533 55° Northeast  Level Estimated
06:45PM 44.4719 -73.1533 55° Northeast  Level Estimated
06:46PM 44.4719 -73.1533 55° Northeast  Level Estimated
06:47PM 44.4719 -73.1533 55° Northeast  Level Estimated